Time;durP1;ratioP1;P1;durP2;ratioP2;P2;SDS_P1;SDS_P2;PMS_P1;PMS_P2;Temp;Humidity;BMP_temperature;BMP_pressure;BME280_temperature;BME280_humidity;BME280_pressure;Samples;Min_cycle;Max_cycle;Signal;HPM_P1;HPM_P2
2023/04/03 00:02:11;;;;;;;;;;;11.20;99.90;;;;;;5142163;27;19907;-60
2023/04/03 00:04:36;;;;;;;;;;;11.20;99.90;;;;;;5142068;27;19978;-60
2023/04/03 00:07:02;;;;;;;;;;;11.10;99.90;;;;;;5142139;27;20007;-60
2023/04/03 00:09:27;;;;;;;;;;;11.10;99.90;;;;;;5142040;27;19914;-60
2023/04/03 00:11:53;;;;;;;;;;;11.00;99.90;;;;;;5141819;27;20282;-60
2023/04/03 00:14:19;;;;;;;;;;;11.00;99.90;;;;;;5141669;27;19960;-60
2023/04/03 00:16:44;;;;;;;;;;;11.00;99.90;;;;;;5141767;27;19908;-60
2023/04/03 00:19:11;;;;;;;;;;;11.00;99.90;;;;;;5142118;27;20324;-60
2023/04/03 00:21:37;;;;;;;;;;;11.00;99.90;;;;;;5141676;27;19950;-60
2023/04/03 00:24:03;;;;;;;;;;;11.00;99.90;;;;;;5141478;27;19918;-60
2023/04/03 00:26:29;;;;;;;;;;;11.00;99.90;;;;;;5141485;27;19923;-60
2023/04/03 00:28:54;;;;;;;;;;;11.00;99.90;;;;;;5141865;27;20362;-60
2023/04/03 00:31:20;;;;;;;;;;;11.00;99.90;;;;;;5141496;27;19908;-60
2023/04/03 00:33:46;;;;;;;;;;;11.00;99.90;;;;;;5141396;27;19960;-60
2023/04/03 00:36:12;;;;;;;;;;;11.10;99.90;;;;;;5141828;27;19907;-60
2023/04/03 00:38:37;;;;;;;;;;;11.00;99.90;;;;;;5141280;27;19954;-60
2023/04/03 00:41:03;;;;;;;;;;;11.10;99.90;;;;;;5141288;27;19909;-60
2023/04/03 00:43:29;;;;;;;;;;;11.00;99.90;;;;;;5141575;27;19915;-60
2023/04/03 00:45:56;;;;;;;;;;;11.00;99.90;;;;;;5141186;27;20344;-60
2023/04/03 00:48:25;;;;;;;;;;;11.10;99.90;;;;;;5141333;27;19908;-60
2023/04/03 00:50:51;;;;;;;;;;;11.10;99.90;;;;;;5141229;27;19929;-60
2023/04/03 00:53:29;;;;;;;;;;;11.00;99.90;;;;;;5141200;27;19912;-60
2023/04/03 00:55:56;;;;;;;;;;;11.10;99.90;;;;;;5140755;27;19914;-60
2023/04/03 00:58:24;;;;;;;;;;;11.00;99.90;;;;;;5141065;27;19946;-60
2023/04/03 01:00:55;;;;;;;;;;;11.00;99.90;;;;;;5140601;27;19914;-60
2023/04/03 01:03:21;;;;;;;;;;;11.00;99.90;;;;;;5140978;27;19971;-60
2023/04/03 01:05:47;;;;;;;;;;;11.00;99.90;;;;;;5140545;27;20358;-60
2023/04/03 01:08:12;;;;;;;;;;;11.00;99.90;;;;;;5140738;27;19939;-60
2023/04/03 01:10:38;;;;;;;;;;;10.90;99.90;;;;;;5140836;27;19908;-60
2023/04/03 01:13:17;;;;;;;;;;;10.90;99.90;;;;;;5140667;27;19907;-60
2023/04/03 01:15:43;;;;;;;;;;;10.90;99.90;;;;;;5141021;27;19907;-60
2023/04/03 01:18:09;;;;;;;;;;;10.90;99.90;;;;;;5140496;27;20278;-60
2023/04/03 01:20:47;;;;;;;;;;;10.80;99.90;;;;;;5140487;27;19907;-60
2023/04/03 01:23:20;;;;;;;;;;;10.80;99.90;;;;;;5140317;27;20378;-60
2023/04/03 01:25:47;;;;;;;;;;;10.80;99.90;;;;;;5140068;27;19907;-60
2023/04/03 01:28:20;;;;;;;;;;;10.70;99.90;;;;;;5140303;27;19966;-60
2023/04/03 01:31:05;;;;;;;;;;;10.70;99.90;;;;;;5140479;27;19908;-60
2023/04/03 01:33:31;;;;;;;;;;;10.70;99.90;;;;;;5140161;27;19964;-60
2023/04/03 01:35:56;;;;;;;;;;;10.60;99.90;;;;;;5140178;27;19908;-60
2023/04/03 01:38:22;;;;;;;;;;;10.60;99.90;;;;;;5140549;27;19907;-60
2023/04/03 01:40:48;;;;;;;;;;;10.60;99.90;;;;;;5140105;27;19907;-60
2023/04/03 01:43:13;;;;;;;;;;;10.70;99.90;;;;;;5140159;27;19911;-60
2023/04/03 01:45:39;;;;;;;;;;;10.50;99.90;;;;;;5139967;27;19911;-60
2023/04/03 01:48:05;;;;;;;;;;;10.50;99.90;;;;;;5139821;27;19914;-60
2023/04/03 01:50:31;;;;;;;;;;;10.50;99.90;;;;;;5140057;27;19907;-60
2023/04/03 01:52:56;;;;;;;;;;;10.50;99.90;;;;;;5139833;27;20327;-60
2023/04/03 01:55:22;;;;;;;;;;;10.50;99.90;;;;;;5139978;27;19911;-60
2023/04/03 01:57:47;;;;;;;;;;;10.50;99.90;;;;;;5139954;27;20006;-60
2023/04/03 02:00:13;;;;;;;;;;;10.40;99.90;;;;;;5139764;27;19907;-60
2023/04/03 02:02:39;;;;;;;;;;;10.40;99.90;;;;;;5140086;27;19978;-60
2023/04/03 02:05:05;;;;;;;;;;;10.40;99.90;;;;;;5139358;27;19912;-60
2023/04/03 02:07:30;;;;;;;;;;;10.40;99.90;;;;;;5139564;27;19908;-60
2023/04/03 02:09:56;;;;;;;;;;;10.40;99.90;;;;;;5139602;27;20373;-60
2023/04/03 02:12:22;;;;;;;;;;;10.40;99.90;;;;;;5140026;27;19952;-60
2023/04/03 02:14:47;;;;;;;;;;;10.50;99.90;;;;;;5139473;27;19907;-60
2023/04/03 02:17:13;;;;;;;;;;;10.40;99.90;;;;;;5139145;27;20397;-60
2023/04/03 02:19:39;;;;;;;;;;;10.40;99.90;;;;;;5139617;27;19911;-60
2023/04/03 02:22:05;;;;;;;;;;;10.40;99.90;;;;;;5139199;27;20328;-60
2023/04/03 02:24:30;;;;;;;;;;;10.40;99.90;;;;;;5139680;27;19915;-60
2023/04/03 02:26:56;;;;;;;;;;;10.40;99.90;;;;;;5139098;27;19927;-60
2023/04/03 02:29:22;;;;;;;;;;;10.40;99.90;;;;;;5139713;27;19953;-60
2023/04/03 02:31:47;;;;;;;;;;;10.40;99.90;;;;;;5139084;27;19912;-60
2023/04/03 02:34:13;;;;;;;;;;;10.40;99.90;;;;;;5139489;27;19994;-60
2023/04/03 02:36:39;;;;;;;;;;;10.30;99.90;;;;;;5139222;27;19950;-60
2023/04/03 02:39:05;;;;;;;;;;;10.30;99.90;;;;;;5139389;27;19908;-60
2023/04/03 02:41:34;;;;;;;;;;;10.30;99.90;;;;;;5139190;28;19914;-60
2023/04/03 02:44:04;;;;;;;;;;;10.30;99.90;;;;;;5138977;28;20002;-60
2023/04/03 02:46:29;;;;;;;;;;;10.30;99.90;;;;;;5138928;28;20339;-60
2023/04/03 02:48:55;;;;;;;;;;;10.30;99.90;;;;;;5139269;28;19914;-60
2023/04/03 02:51:20;;;;;;;;;;;10.20;99.90;;;;;;5139447;28;19946;-60
2023/04/03 02:53:46;;;;;;;;;;;10.00;99.90;;;;;;5139171;28;19908;-60
2023/04/03 02:56:12;;;;;;;;;;;10.00;99.90;;;;;;5139062;28;19908;-60
2023/04/03 02:58:37;;;;;;;;;;;9.80;99.90;;;;;;5139352;28;19911;-59
2023/04/03 03:01:03;;;;;;;;;;;9.80;99.90;;;;;;5138992;28;19911;-60
2023/04/03 03:03:28;;;;;;;;;;;9.70;99.90;;;;;;5139185;28;19916;-60
2023/04/03 03:06:01;;;;;;;;;;;9.60;99.90;;;;;;5139405;28;20368;-60
2023/04/03 03:08:26;;;;;;;;;;;9.50;99.90;;;;;;5139129;28;19907;-60
2023/04/03 03:10:52;;;;;;;;;;;9.40;99.90;;;;;;5139372;28;19956;-60
2023/04/03 03:13:18;;;;;;;;;;;9.30;99.90;;;;;;5138937;28;19969;-60
2023/04/03 03:15:43;;;;;;;;;;;9.20;99.90;;;;;;5139081;28;19937;-60
2023/04/03 03:18:09;;;;;;;;;;;9.10;99.90;;;;;;5139224;28;19953;-59
2023/04/03 03:20:34;;;;;;;;;;;9.00;99.90;;;;;;5138610;28;19907;-60
2023/04/03 03:23:00;;;;;;;;;;;8.90;99.90;;;;;;5138710;28;19965;-60
2023/04/03 03:25:25;;;;;;;;;;;8.80;99.90;;;;;;5138786;28;19914;-60
2023/04/03 03:27:51;;;;;;;;;;;8.80;99.90;;;;;;5140457;27;19927;-60
2023/04/03 03:30:17;;;;;;;;;;;8.70;99.90;;;;;;5142897;27;19915;-60
2023/04/03 03:32:42;;;;;;;;;;;8.70;99.90;;;;;;5142988;27;19908;-60
2023/04/03 03:35:08;;;;;;;;;;;8.60;99.90;;;;;;5142890;27;19907;-60
2023/04/03 03:37:34;;;;;;;;;;;8.50;99.90;;;;;;5142624;27;19907;-60
2023/04/03 03:39:59;;;;;;;;;;;8.50;99.90;;;;;;5142476;27;20012;-60
2023/04/03 03:42:25;;;;;;;;;;;8.40;99.90;;;;;;5142573;27;19929;-59
2023/04/03 03:44:51;;;;;;;;;;;8.40;99.90;;;;;;5142041;27;19915;-59
2023/04/03 03:47:17;;;;;;;;;;;8.30;99.90;;;;;;5123834;27;19994;-59
2023/04/03 03:49:43;;;;;;;;;;;8.30;99.90;;;;;;5142615;27;19943;-59
2023/04/03 03:52:10;;;;;;;;;;;8.20;99.90;;;;;;5142359;27;19985;-60
2023/04/03 03:54:37;;;;;;;;;;;8.20;99.90;;;;;;5142355;27;20278;-60
2023/04/03 03:57:02;;;;;;;;;;;8.10;99.90;;;;;;5142285;27;19915;-60
2023/04/03 03:59:28;;;;;;;;;;;8.10;99.90;;;;;;5142304;27;19908;-59
2023/04/03 04:01:53;;;;;;;;;;;8.10;99.90;;;;;;5142223;27;19908;-59
2023/04/03 04:04:19;;;;;;;;;;;8.00;99.90;;;;;;5141970;27;19922;-60
2023/04/03 04:06:45;;;;;;;;;;;8.00;99.90;;;;;;5142137;27;19907;-59
2023/04/03 04:09:11;;;;;;;;;;;7.90;99.90;;;;;;5141666;27;19914;-59
2023/04/03 04:11:36;;;;;;;;;;;7.80;99.90;;;;;;5142047;27;19946;-60
2023/04/03 04:14:02;;;;;;;;;;;7.80;99.90;;;;;;5141892;27;19990;-59
2023/04/03 04:16:28;;;;;;;;;;;7.70;99.90;;;;;;5141782;27;19907;-60
2023/04/03 04:18:53;;;;;;;;;;;7.70;99.90;;;;;;5141483;27;19907;-60
2023/04/03 04:21:19;;;;;;;;;;;7.60;99.90;;;;;;5141429;27;19912;-60
2023/04/03 04:23:44;;;;;;;;;;;7.60;99.90;;;;;;5141442;27;19958;-60
2023/04/03 04:26:10;;;;;;;;;;;7.60;99.90;;;;;;5141132;27;19951;-60
2023/04/03 04:28:36;;;;;;;;;;;7.50;99.90;;;;;;5141595;27;19942;-59
2023/04/03 04:31:01;;;;;;;;;;;7.50;99.90;;;;;;5141212;27;19915;-60
2023/04/03 04:33:27;;;;;;;;;;;7.40;99.90;;;;;;5141234;27;19907;-60
2023/04/03 04:35:52;;;;;;;;;;;7.40;99.90;;;;;;5141612;27;20235;-59
2023/04/03 04:38:18;;;;;;;;;;;7.40;99.90;;;;;;5141125;27;19998;-59
2023/04/03 04:40:43;;;;;;;;;;;7.40;99.90;;;;;;5122040;27;20393;-59
2023/04/03 04:43:10;;;;;;;;;;;7.40;99.90;;;;;;5140939;27;19907;-59
2023/04/03 04:45:36;;;;;;;;;;;7.30;99.90;;;;;;5140743;27;19972;-59
2023/04/03 04:48:01;;;;;;;;;;;7.40;99.90;;;;;;5141179;27;19908;-59
2023/04/03 04:50:27;;;;;;;;;;;7.30;99.90;;;;;;5141017;27;19908;-60
2023/04/03 04:52:53;;;;;;;;;;;7.40;99.90;;;;;;5140194;27;20645;-59
2023/04/03 04:55:18;;;;;;;;;;;7.40;99.90;;;;;;5140476;27;19958;-60
2023/04/03 04:57:44;;;;;;;;;;;7.20;99.90;;;;;;5140652;27;20385;-60
2023/04/03 05:00:10;;;;;;;;;;;7.20;99.90;;;;;;5140398;27;19908;-60
2023/04/03 05:02:36;;;;;;;;;;;7.20;99.90;;;;;;5140491;27;20362;-60
2023/04/03 05:05:01;;;;;;;;;;;7.10;99.90;;;;;;5140615;27;19918;-60
2023/04/03 05:07:27;;;;;;;;;;;7.30;99.90;;;;;;5140030;27;20472;-60
2023/04/03 05:09:53;;;;;;;;;;;7.20;99.90;;;;;;5140733;27;20269;-59
2023/04/03 05:12:18;;;;;;;;;;;7.10;99.90;;;;;;5140322;27;19959;-60
2023/04/03 05:14:44;;;;;;;;;;;7.20;99.90;;;;;;5140525;27;19998;-60
2023/04/03 05:17:09;;;;;;;;;;;7.00;99.90;;;;;;5140219;27;19954;-60
2023/04/03 05:19:35;;;;;;;;;;;7.00;99.90;;;;;;5140009;27;19911;-60
2023/04/03 05:22:01;;;;;;;;;;;7.00;99.90;;;;;;5140125;27;20007;-60
2023/04/03 05:24:27;;;;;;;;;;;7.00;99.90;;;;;;5139806;27;19918;-60
2023/04/03 05:26:52;;;;;;;;;;;7.00;99.90;;;;;;5140104;27;19925;-59
2023/04/03 05:29:18;;;;;;;;;;;7.00;99.90;;;;;;5140370;27;19907;-60
2023/04/03 05:31:44;;;;;;;;;;;7.00;99.90;;;;;;5140412;27;20266;-59
2023/04/03 05:34:09;;;;;;;;;;;7.00;99.90;;;;;;5121341;27;19929;-60
2023/04/03 05:36:35;;;;;;;;;;;7.00;99.90;;;;;;5140050;27;19994;-59
2023/04/03 05:39:01;;;;;;;;;;;6.90;99.90;;;;;;5139896;27;20003;-60
2023/04/03 05:41:26;;;;;;;;;;;6.80;99.90;;;;;;5139726;27;20397;-60
2023/04/03 05:43:52;;;;;;;;;;;6.80;99.90;;;;;;5139527;27;20015;-60
2023/04/03 05:46:19;;;;;;;;;;;6.80;99.90;;;;;;5139483;27;19928;-59
2023/04/03 05:48:45;;;;;;;;;;;6.80;99.90;;;;;;5140110;27;19967;-59
2023/04/03 05:51:15;;;;;;;;;;;6.80;99.90;;;;;;5138570;27;20399;-59
2023/04/03 05:53:41;;;;;;;;;;;6.80;99.90;;;;;;5139555;27;19961;-60
2023/04/03 05:56:06;;;;;;;;;;;6.80;99.90;;;;;;5139409;27;19907;-60
2023/04/03 05:58:32;;;;;;;;;;;6.80;99.90;;;;;;5139870;27;19911;-60
2023/04/03 06:00:58;;;;;;;;;;;6.80;99.90;;;;;;5139242;27;19911;-60
2023/04/03 06:03:24;;;;;;;;;;;6.90;99.90;;;;;;5121183;27;19954;-59
2023/04/03 06:05:49;;;;;;;;;;;7.00;99.90;;;;;;5139156;27;19915;-59
2023/04/03 06:08:15;;;;;;;;;;;7.00;99.90;;;;;;5139646;27;19914;-59
2023/04/03 06:10:41;;;;;;;;;;;7.00;99.90;;;;;;5139402;27;19908;-60
2023/04/03 06:13:06;;;;;;;;;;;7.00;99.90;;;;;;5139138;27;19952;-60
2023/04/03 06:15:32;;;;;;;;;;;7.00;99.90;;;;;;5139633;27;20436;-60
2023/04/03 06:17:58;;;;;;;;;;;7.00;99.90;;;;;;5139177;27;19911;-60
2023/04/03 06:20:24;;;;;;;;;;;7.10;99.90;;;;;;5139639;27;19907;-59
2023/04/03 06:22:50;;;;;;;;;;;7.10;99.90;;;;;;5138988;27;19941;-60
2023/04/03 06:25:18;;;;;;;;;;;7.10;99.90;;;;;;5138784;27;19968;-59
2023/04/03 06:27:44;;;;;;;;;;;7.10;99.90;;;;;;5138932;27;19919;-60
2023/04/03 06:30:10;;;;;;;;;;;7.10;99.90;;;;;;5139435;27;19911;-60
2023/04/03 06:32:36;;;;;;;;;;;7.00;99.90;;;;;;5138997;27;19907;-59
2023/04/03 06:35:01;;;;;;;;;;;7.00;99.90;;;;;;5139185;27;19914;-61
2023/04/03 06:37:31;;;;;;;;;;;7.00;99.90;;;;;;5139349;27;19907;-60
2023/04/03 06:39:56;;;;;;;;;;;7.00;99.90;;;;;;5138963;27;19922;-60
2023/04/03 06:42:22;;;;;;;;;;;7.00;99.90;;;;;;5139454;28;20259;-59
2023/04/03 06:44:48;;;;;;;;;;;7.00;99.90;;;;;;5138789;28;19932;-60
2023/04/03 06:47:14;;;;;;;;;;;7.00;99.90;;;;;;5139340;28;20269;-59
2023/04/03 06:49:40;;;;;;;;;;;6.90;99.90;;;;;;5138822;28;19911;-59
2023/04/03 06:52:05;;;;;;;;;;;7.10;99.90;;;;;;5138966;28;19975;-59
2023/04/03 06:54:31;;;;;;;;;;;7.10;99.90;;;;;;5138964;28;19907;-60
2023/04/03 06:56:57;;;;;;;;;;;7.10;99.90;;;;;;5138795;28;19914;-60
2023/04/03 06:59:23;;;;;;;;;;;7.00;99.90;;;;;;5138765;28;19914;-59
2023/04/03 07:01:48;;;;;;;;;;;7.10;99.90;;;;;;5138971;27;19911;-59
2023/04/03 07:04:15;;;;;;;;;;;7.10;99.90;;;;;;5143180;27;19911;-59
2023/04/03 07:06:42;;;;;;;;;;;7.10;99.90;;;;;;5143016;27;19952;-59
2023/04/03 07:09:08;;;;;;;;;;;7.20;99.90;;;;;;5142809;27;19911;-60
2023/04/03 07:11:34;;;;;;;;;;;7.30;99.90;;;;;;5142771;27;19915;-59
2023/04/03 07:14:00;;;;;;;;;;;7.20;99.90;;;;;;5142656;27;19907;-59
2023/04/03 07:16:25;;;;;;;;;;;7.30;99.90;;;;;;5143055;27;19908;-60
2023/04/03 07:18:51;;;;;;;;;;;7.40;99.90;;;;;;5142340;27;19907;-60
2023/04/03 07:21:17;;;;;;;;;;;7.40;99.90;;;;;;5142466;27;20589;-60
2023/04/03 07:23:42;;;;;;;;;;;7.40;99.90;;;;;;5142382;27;19911;-59
2023/04/03 07:26:09;;;;;;;;;;;7.30;99.90;;;;;;5142197;27;19930;-60
2023/04/03 07:28:34;;;;;;;;;;;7.50;99.90;;;;;;5142414;27;19915;-60
2023/04/03 07:31:01;;;;;;;;;;;7.50;99.90;;;;;;5142205;27;19907;-60
2023/04/03 07:33:27;;;;;;;;;;;7.50;99.90;;;;;;5142233;27;19908;-59
2023/04/03 07:35:53;;;;;;;;;;;7.50;99.90;;;;;;5142318;27;19983;-60
2023/04/03 07:38:19;;;;;;;;;;;7.60;99.90;;;;;;5142112;27;20390;-60
2023/04/03 07:40:46;;;;;;;;;;;7.60;99.90;;;;;;5142222;27;19911;-60
2023/04/03 07:43:11;;;;;;;;;;;7.70;99.90;;;;;;5141980;27;19907;-60
2023/04/03 07:45:37;;;;;;;;;;;7.50;99.90;;;;;;5141957;27;20358;-60
2023/04/03 07:48:03;;;;;;;;;;;7.70;99.90;;;;;;5141999;27;19908;-60
2023/04/03 07:50:30;;;;;;;;;;;7.80;99.90;;;;;;5141914;27;19907;-60
2023/04/03 07:52:57;;;;;;;;;;;7.80;99.90;;;;;;5142080;27;19943;-60
2023/04/03 07:55:23;;;;;;;;;;;7.80;99.90;;;;;;5141876;27;19908;-60
2023/04/03 07:57:49;;;;;;;;;;;7.90;99.90;;;;;;5141999;27;19907;-60
2023/04/03 08:00:17;;;;;;;;;;;7.90;99.90;;;;;;5142069;27;19973;-60
2023/04/03 08:02:44;;;;;;;;;;;7.90;99.90;;;;;;5141634;27;19925;-60
2023/04/03 08:05:10;;;;;;;;;;;8.00;99.90;;;;;;5141373;27;20396;-60
2023/04/03 08:07:36;;;;;;;;;;;8.00;99.90;;;;;;5141662;27;19908;-59
2023/04/03 08:10:02;;;;;;;;;;;8.00;99.90;;;;;;5141461;27;19914;-60
2023/04/03 08:12:29;;;;;;;;;;;8.10;99.90;;;;;;5141548;27;20383;-60
2023/04/03 08:14:55;;;;;;;;;;;8.20;99.90;;;;;;5140333;27;19952;-60
2023/04/03 08:17:21;;;;;;;;;;;8.10;99.90;;;;;;5141581;27;19908;-60
2023/04/03 08:19:47;;;;;;;;;;;8.20;99.90;;;;;;5141190;27;19908;-60
2023/04/03 08:22:12;;;;;;;;;;;10.40;99.90;;;;;;5141303;27;20006;-60
2023/04/03 08:24:38;;;;;;;;;;;8.40;99.90;;;;;;5140994;27;20476;-60
2023/04/03 08:27:03;;;;;;;;;;;8.50;99.90;;;;;;5141049;27;19926;-60
2023/04/03 08:29:29;;;;;;;;;;;8.70;99.90;;;;;;5141028;27;19934;-60
2023/04/03 08:31:55;;;;;;;;;;;8.60;99.90;;;;;;5141472;27;19907;-60
2023/04/03 08:34:21;;;;;;;;;;;8.70;99.90;;;;;;5141472;27;19911;-60
2023/04/03 08:36:46;;;;;;;;;;;8.80;99.90;;;;;;5140822;27;19908;-60
2023/04/03 08:39:12;;;;;;;;;;;8.90;99.90;;;;;;5140990;27;19915;-60
2023/04/03 08:41:46;;;;;;;;;;;9.00;99.90;;;;;;5140771;27;19914;-60
2023/04/03 08:44:17;;;;;;;;;;;9.10;99.90;;;;;;5140879;27;19911;-60
2023/04/03 08:46:56;;;;;;;;;;;9.30;99.90;;;;;;5141134;27;19946;-60
2023/04/03 08:49:54;;;;;;;;;;;9.40;99.90;;;;;;5140840;27;19928;-60
2023/04/03 08:52:33;;;;;;;;;;;9.40;99.90;;;;;;5095190;27;19918;-60
2023/04/03 08:55:02;;;;;;;;;;;9.50;99.90;;;;;;5140440;27;19918;-60
2023/04/03 08:57:55;;;;;;;;;;;9.60;99.90;;;;;;5141157;27;19914;-60
2023/04/03 09:00:22;;;;;;;;;;;9.80;99.90;;;;;;5109445;27;20292;-60
2023/04/03 09:02:50;;;;;;;;;;;9.80;99.90;;;;;;5140480;27;20355;-60
2023/04/03 09:05:23;;;;;;;;;;;10.00;99.90;;;;;;5140150;27;20412;-60
2023/04/03 09:08:00;;;;;;;;;;;10.10;99.90;;;;;;5140536;27;19907;-60
2023/04/03 09:10:33;;;;;;;;;;;10.30;99.90;;;;;;5121847;27;19936;-60
2023/04/03 09:13:19;;;;;;;;;;;10.50;99.90;;;;;;5140475;27;19918;-60
2023/04/03 09:15:44;;;;;;;;;;;10.60;99.90;;;;;;5139831;27;19986;-60
2023/04/03 09:18:21;;;;;;;;;;;10.80;99.90;;;;;;5140301;27;19950;-60
2023/04/03 09:20:56;;;;;;;;;;;11.00;99.90;;;;;;5139909;27;19907;-60
2023/04/03 09:23:22;;;;;;;;;;;11.40;99.90;;;;;;5140339;27;20428;-60
2023/04/03 09:25:48;;;;;;;;;;;12.00;99.90;;;;;;5140183;27;19908;-60
2023/04/03 09:28:14;;;;;;;;;;;12.70;97.30;;;;;;5119097;28;19923;-60
2023/04/03 09:30:41;;;;;;;;;;;13.10;99.20;;;;;;5119507;28;19915;-60
2023/04/03 09:33:06;;;;;;;;;;;13.70;98.40;;;;;;5119327;28;19914;-60
2023/04/03 09:35:33;;;;;;;;;;;15.00;99.90;;;;;;5119861;28;19948;-60
2023/04/03 09:37:59;;;;;;;;;;;15.80;82.70;;;;;;5119320;28;20460;-60
2023/04/03 09:40:25;;;;;;;;;;;16.80;99.90;;;;;;5119354;28;19956;-60
2023/04/03 09:42:51;;;;;;;;;;;17.80;93.70;;;;;;5119157;28;19912;-60
2023/04/03 09:45:28;;;;;;;;;;;18.30;85.00;;;;;;5119176;28;19950;-60
2023/04/03 09:48:07;;;;;;;;;;;18.60;73.20;;;;;;5119023;28;20376;-60
2023/04/03 09:50:34;;;;;;;;;;;17.80;69.30;;;;;;5119084;28;19908;-60
2023/04/03 09:53:03;;;;;;;;;;;18.60;81.00;;;;;;5119227;28;19954;-60
2023/04/03 09:55:29;;;;;;;;;;;19.50;77.50;;;;;;5118784;28;20232;-61
2023/04/03 09:58:05;;;;;;;;;;;18.90;66.40;;;;;;5119164;28;19930;-60
2023/04/03 10:00:35;;;;;;;;;;;19.00;65.30;;;;;;5118767;28;20287;-60
2023/04/03 10:03:00;;;;;;;;;;;19.30;66.70;;;;;;5118892;28;19911;-60
2023/04/03 10:05:26;;;;;;;;;;;20.20;68.90;;;;;;5118650;28;19915;-61
2023/04/03 10:07:51;;;;;;;;;;;21.00;75.40;;;;;;5118839;28;20422;-60
2023/04/03 10:10:25;;;;;;;;;;;20.30;66.30;;;;;;5118661;28;19907;-60
2023/04/03 10:13:10;;;;;;;;;;;21.60;68.10;;;;;;5117600;28;19908;-61
2023/04/03 10:15:41;;;;;;;;;;;23.30;62.20;;;;;;5118684;28;19957;-61
2023/04/03 10:18:15;;;;;;;;;;;22.70;63.50;;;;;;5118649;28;19941;-60
2023/04/03 10:20:44;;;;;;;;;;;23.10;61.40;;;;;;5118343;28;19908;-61
2023/04/03 10:23:25;;;;;;;;;;;23.90;60.10;;;;;;5118624;28;20308;-60
2023/04/03 10:25:54;;;;;;;;;;;24.20;60.90;;;;;;5118779;28;19912;-61
2023/04/03 10:28:26;;;;;;;;;;;23.00;58.00;;;;;;5139111;27;19915;-61
2023/04/03 10:30:58;;;;;;;;;;;23.70;62.10;;;;;;5139246;27;19973;-61
2023/04/03 10:33:32;;;;;;;;;;;24.30;53.90;;;;;;5138715;27;19915;-60
2023/04/03 10:35:58;;;;;;;;;;;24.10;54.00;;;;;;5139346;27;20002;-61
2023/04/03 10:38:32;;;;;;;;;;;24.40;56.50;;;;;;5138607;27;19951;-61
2023/04/03 10:41:08;;;;;;;;;;;24.80;60.20;;;;;;5138864;27;19911;-61
2023/04/03 10:43:47;;;;;;;;;;;24.80;52.80;;;;;;5138787;28;19911;-61
2023/04/03 10:46:20;;;;;;;;;;;24.10;51.30;;;;;;5139238;28;19908;-61
2023/04/03 10:48:57;;;;;;;;;;;23.90;56.00;;;;;;5138986;28;19908;-61
2023/04/03 10:51:22;;;;;;;;;;;23.90;52.60;;;;;;5138750;28;19908;-61
2023/04/03 10:53:48;;;;;;;;;;;24.00;55.10;;;;;;5138927;28;19957;-61
2023/04/03 10:56:25;;;;;;;;;;;24.40;54.20;;;;;;5138816;28;19908;-61
2023/04/03 10:59:13;;;;;;;;;;;25.70;55.40;;;;;;5138477;28;19908;-61
2023/04/03 11:01:41;;;;;;;;;;;25.40;50.20;;;;;;5138959;28;19915;-61
2023/04/03 11:04:07;;;;;;;;;;;25.10;53.60;;;;;;5138660;28;19979;-61
2023/04/03 11:06:43;;;;;;;;;;;25.40;53.50;;;;;;5138664;28;19930;-61
2023/04/03 11:09:37;;;;;;;;;;;25.40;48.50;;;;;;5138717;28;19907;-61
2023/04/03 11:12:06;;;;;;;;;;;26.30;49.90;;;;;;5136114;28;19908;-61
2023/04/03 11:14:34;;;;;;;;;;;26.40;55.30;;;;;;5138610;28;19915;-61
2023/04/03 11:17:23;;;;;;;;;;;26.20;49.60;;;;;;5138634;28;19934;-61
2023/04/03 11:20:06;;;;;;;;;;;25.40;49.20;;;;;;5138472;28;19907;-61
2023/04/03 11:22:40;;;;;;;;;;;25.90;49.60;;;;;;5138274;28;20411;-61
2023/04/03 11:25:10;;;;;;;;;;;26.80;43.80;;;;;;5138743;28;19912;-61
2023/04/03 11:27:49;;;;;;;;;;;25.70;44.20;;;;;;5138195;28;19968;-61
2023/04/03 11:30:18;;;;;;;;;;;25.50;46.00;;;;;;5138636;28;19907;-61
2023/04/03 11:32:52;;;;;;;;;;;25.00;50.70;;;;;;5138582;28;19947;-61
2023/04/03 11:35:19;;;;;;;;;;;25.50;51.50;;;;;;5138244;28;19951;-61
2023/04/03 11:37:46;;;;;;;;;;;27.00;50.60;;;;;;5138552;28;20385;-61
2023/04/03 11:40:32;;;;;;;;;;;27.40;45.80;;;;;;5138604;28;19914;-61
2023/04/03 11:43:05;;;;;;;;;;;25.90;43.70;;;;;;5138507;28;20014;-61
2023/04/03 11:45:36;;;;;;;;;;;26.50;44.60;;;;;;5138420;28;19962;-61
2023/04/03 11:48:03;;;;;;;;;;;26.50;42.60;;;;;;5138504;27;19935;-61
2023/04/03 11:50:40;;;;;;;;;;;26.50;44.80;;;;;;5141346;27;19999;-61
2023/04/03 11:53:06;;;;;;;;;;;26.30;43.90;;;;;;5142108;27;19907;-61
2023/04/03 11:55:31;;;;;;;;;;;26.80;48.30;;;;;;5141801;27;19928;-61
2023/04/03 11:57:57;;;;;;;;;;;27.40;48.60;;;;;;5142086;27;20349;-61
2023/04/03 12:00:41;;;;;;;;;;;27.80;49.00;;;;;;5141649;27;19907;-61
2023/04/03 12:03:22;;;;;;;;;;;28.50;43.40;;;;;;5141834;27;19914;-61
2023/04/03 12:05:47;;;;;;;;;;;28.40;41.80;;;;;;5141819;27;19912;-61
2023/04/03 12:08:23;;;;;;;;;;;27.40;48.60;;;;;;5141985;27;19914;-61
2023/04/03 12:11:07;;;;;;;;;;;26.90;40.80;;;;;;5141751;27;19926;-61
2023/04/03 12:13:33;;;;;;;;;;;26.80;41.50;;;;;;5141549;27;19915;-61
2023/04/03 12:15:59;;;;;;;;;;;25.70;44.20;;;;;;5141346;27;19907;-61
2023/04/03 12:18:55;;;;;;;;;;;26.00;45.90;;;;;;5141357;27;19966;-61
2023/04/03 12:21:22;;;;;;;;;;;26.00;43.30;;;;;;5141103;27;20255;-61
2023/04/03 12:24:06;;;;;;;;;;;26.70;46.70;;;;;;5141389;27;19990;-61
2023/04/03 12:26:35;;;;;;;;;;;27.80;43.80;;;;;;5141065;27;20422;-61
2023/04/03 12:29:15;;;;;;;;;;;28.20;45.90;;;;;;5140691;27;20313;-61
2023/04/03 12:32:00;;;;;;;;;;;27.50;38.90;;;;;;5141231;27;19952;-61
2023/04/03 12:34:44;;;;;;;;;;;27.60;44.70;;;;;;5141218;27;19935;-61
2023/04/03 12:37:22;;;;;;;;;;;27.90;41.70;;;;;;5140754;27;19912;-61
2023/04/03 12:40:06;;;;;;;;;;;28.40;41.20;;;;;;5140952;27;19916;-61
2023/04/03 12:42:31;;;;;;;;;;;28.70;40.30;;;;;;5140923;27;19907;-61
2023/04/03 12:45:03;;;;;;;;;;;28.00;44.50;;;;;;5140962;27;19917;-61
2023/04/03 12:47:32;;;;;;;;;;;26.20;40.00;;;;;;5141086;27;19908;-61
2023/04/03 12:49:59;;;;;;;;;;;26.40;45.80;;;;;;5141034;27;19912;-61
2023/04/03 12:52:33;;;;;;;;;;;26.80;46.40;;;;;;5122165;27;20420;-61
2023/04/03 12:55:03;;;;;;;;;;;27.30;40.60;;;;;;5140830;27;19907;-61
2023/04/03 12:57:30;;;;;;;;;;;27.70;45.80;;;;;;5140445;27;20324;-61
2023/04/03 12:59:56;;;;;;;;;;;27.80;45.90;;;;;;5140262;27;19907;-61
2023/04/03 13:02:23;;;;;;;;;;;28.10;43.50;;;;;;5140331;27;19911;-61
2023/04/03 13:04:49;;;;;;;;;;;28.30;45.50;;;;;;5140603;27;19919;-61
2023/04/03 13:07:22;;;;;;;;;;;27.40;43.60;;;;;;5140322;27;19907;-61
2023/04/03 13:09:59;;;;;;;;;;;26.80;40.40;;;;;;5140538;27;19915;-61
2023/04/03 13:12:25;;;;;;;;;;;26.00;39.80;;;;;;5140107;27;19907;-61
2023/04/03 13:14:58;;;;;;;;;;;26.20;43.10;;;;;;5140522;27;19922;-61
2023/04/03 13:17:24;;;;;;;;;;;26.40;38.30;;;;;;5140331;27;20354;-61
2023/04/03 13:19:51;;;;;;;;;;;26.60;43.10;;;;;;5140143;27;19919;-61
2023/04/03 13:22:26;;;;;;;;;;;26.80;43.20;;;;;;5140092;27;19915;-61
2023/04/03 13:24:53;;;;;;;;;;;27.00;42.00;;;;;;5140022;27;20002;-61
2023/04/03 13:27:19;;;;;;;;;;;27.30;45.30;;;;;;5139780;27;19955;-61
2023/04/03 13:29:49;;;;;;;;;;;26.90;44.30;;;;;;5140181;27;19907;-61
2023/04/03 13:32:22;;;;;;;;;;;27.10;42.50;;;;;;5139669;27;19927;-61
2023/04/03 13:34:50;;;;;;;;;;;26.80;38.60;;;;;;5139538;27;20136;-61
2023/04/03 13:37:26;;;;;;;;;;;26.70;43.20;;;;;;5139956;27;19907;-61
2023/04/03 13:40:00;;;;;;;;;;;27.20;40.70;;;;;;5139772;27;19907;-61
2023/04/03 13:42:29;;;;;;;;;;;27.00;40.20;;;;;;5139577;27;19908;-61
2023/04/03 13:45:13;;;;;;;;;;;26.50;42.70;;;;;;5139715;27;19966;-61
2023/04/03 13:47:41;;;;;;;;;;;26.30;36.70;;;;;;5139488;27;19956;-61
2023/04/03 13:50:20;;;;;;;;;;;25.10;42.20;;;;;;5139560;27;19912;-60
2023/04/03 13:52:48;;;;;;;;;;;23.30;40.10;;;;;;5121961;27;20294;-60
2023/04/03 13:55:24;;;;;;;;;;;21.30;46.30;;;;;;5118648;28;19908;-61
2023/04/03 13:57:55;;;;;;;;;;;19.60;45.00;;;;;;5118686;28;19912;-60
2023/04/03 14:00:29;;;;;;;;;;;19.00;46.70;;;;;;5118652;28;19915;-60
2023/04/03 14:02:56;;;;;;;;;;;17.80;49.00;;;;;;5118930;28;19915;-60
2023/04/03 14:05:23;;;;;;;;;;;17.80;54.10;;;;;;5100280;28;20384;-60
2023/04/03 14:07:49;;;;;;;;;;;17.10;55.40;;;;;;5118278;28;19914;-60
2023/04/03 14:10:14;;;;;;;;;;;16.70;55.30;;;;;;5117146;28;19992;-60
2023/04/03 14:12:41;;;;;;;;;;;16.90;56.90;;;;;;5116491;28;19912;-60
2023/04/03 14:15:27;;;;;;;;;;;16.90;57.10;;;;;;5118447;28;19908;-60
2023/04/03 14:17:52;;;;;;;;;;;16.80;56.60;;;;;;5117238;28;20321;-60
2023/04/03 14:20:21;;;;;;;;;;;17.10;57.20;;;;;;5118691;28;19908;-60
2023/04/03 14:22:47;;;;;;;;;;;17.70;56.40;;;;;;5118180;28;20370;-60
2023/04/03 14:25:12;;;;;;;;;;;18.10;54.10;;;;;;5118328;28;19935;-60
2023/04/03 14:27:39;;;;;;;;;;;18.50;53.80;;;;;;5118132;28;19965;-60
2023/04/03 14:30:07;;;;;;;;;;;18.70;53.00;;;;;;5118310;28;19931;-60
2023/04/03 14:32:33;;;;;;;;;;;18.10;52.50;;;;;;5099955;28;19915;-60